Wheat Ridge, CO (80033)

9:57 AM MDT on July 23, 2016 (GMT -0600)
Lena Gulch @ 38th St | | Change Station

Elev 5413 ft 39.77 °N, 105.12 °W | Updated 14 minutes ago

Scattered Clouds
Scattered Clouds
84.5 °F
Feels Like 84 °F
N
2.0
Wind Variable Wind from SE
Gusts 2.0 mph

Today
High -- | Low -- °F
--% Chance of Precip.
Yesterday
High -- | Low -- °F
Precip. -- in
Pressure 30.14 in
Visibility 40.0 miles
Clouds Scattered Clouds 10000 ft
Heat Index 84 °F
Dew Point 57 °F
Humidity 39%
Rainfall 0.00 in
Snow Depth Not available.
5:51 AM 8:21 PM
Waning Gibbous, 84% visible
METAR KBJC 231550Z 13004KT 40SM SCT100 31/08 A3014
Pressure 30.14 in
Visibility 40.0 miles
Clouds Scattered Clouds 10000 ft
Heat Index 84 °F
Dew Point 57 °F
Humidity 39%
Rainfall 0.00 in
Snow Depth Not available.
5:51 AM 8:21 PM
Waning Gibbous, 84% visible
METAR KBJC 231550Z 13004KT 40SM SCT100 31/08 A3014

10-Day Weather Forecast

Almanac

Astronomy

Jul. 23, 2016 Rise Set
Actual Time
Civil Twilight
Nautical Twilight
Astronomical Twilight
Moon
Length of Visible Light
Length of Day
Tomorrow will be .
, % of the Moon is Illuminated

Today's Extremes

State Highs State Lows

Community

WunderPhotos

Upload Photos

1,926,848 photos uploaded!

WunderBlog® & News

Nearby

Air Quality

  Air Quality AQ Index Pollutant
Not available.

Snow Depth

Station Depth Elevation

Earthquake Activity

City Distance Mag. Time & Date
Minimum magnitude displayed is 2.5.

Coastal Water Temperatures

Place Temperature

Stations

Nearby Weather Stations

Station Location Temp. Windchill Dew Point Humidity Wind Precip. Elev Updated Type
                   

Watches & Warnings

There are currently no watches in effect.